createdAt,value
2023-03-02T00:02:22.480Z,4.80
2023-03-02T00:04:54.810Z,4.77
2023-03-02T00:07:27.133Z,4.67
2023-03-02T00:09:54.827Z,4.64
2023-03-02T00:12:21.645Z,4.58
2023-03-02T00:14:48.396Z,4.59
2023-03-02T00:17:14.989Z,4.35
2023-03-02T00:19:41.995Z,4.33
2023-03-02T00:22:10.228Z,4.30
2023-03-02T00:24:37.755Z,4.52
2023-03-02T00:27:04.391Z,4.49
2023-03-02T00:29:31.105Z,4.34
2023-03-02T00:31:57.739Z,4.36
2023-03-02T00:34:24.422Z,4.45
2023-03-02T00:36:51.002Z,4.56
2023-03-02T00:39:19.926Z,4.69
2023-03-02T00:41:47.238Z,4.63
2023-03-02T00:44:17.473Z,4.90
2023-03-02T00:46:44.755Z,4.97
2023-03-02T00:49:12.825Z,4.89
2023-03-02T00:51:39.600Z,4.92
2023-03-02T00:54:06.302Z,4.76
2023-03-02T00:56:33.396Z,4.82
2023-03-02T00:59:11.061Z,4.80
2023-03-02T01:01:38.019Z,4.66
2023-03-02T01:04:05.070Z,4.68
2023-03-02T01:06:32.618Z,4.73
2023-03-02T01:08:59.533Z,4.62
2023-03-02T01:11:26.158Z,4.62
2023-03-02T01:13:52.799Z,4.74
2023-03-02T01:16:19.534Z,4.76
2023-03-02T01:18:46.238Z,4.59
2023-03-02T01:21:15.476Z,4.61
2023-03-02T01:23:42.579Z,4.52
2023-03-02T01:26:09.962Z,4.50
2023-03-02T01:28:36.772Z,4.49
2023-03-02T01:31:04.528Z,4.51
2023-03-02T01:33:32.664Z,4.54
2023-03-02T01:35:59.512Z,4.50
2023-03-02T01:38:26.830Z,4.38
2023-03-02T01:40:53.575Z,4.34
2023-03-02T01:43:20.273Z,4.37
2023-03-02T01:45:59.671Z,4.31
2023-03-02T01:48:57.350Z,4.38
2023-03-02T01:51:38.097Z,4.35
2023-03-02T01:54:10.425Z,4.33
2023-03-02T01:56:40.377Z,4.28
2023-03-02T01:59:13.092Z,4.21
2023-03-02T02:01:42.518Z,4.27
2023-03-02T02:04:09.752Z,4.30
2023-03-02T02:06:48.216Z,4.18
2023-03-02T02:09:18.195Z,4.02
2023-03-02T02:11:45.914Z,4.02
2023-03-02T02:14:13.368Z,4.01
2023-03-02T02:16:41.216Z,3.93
2023-03-02T02:19:33.800Z,3.86
2023-03-02T02:22:01.586Z,3.76
2023-03-02T02:24:35.886Z,3.70
2023-03-02T02:27:02.579Z,3.65
2023-03-02T02:29:45.423Z,3.75
2023-03-02T02:32:26.616Z,3.79
2023-03-02T02:35:14.200Z,3.76
2023-03-02T02:37:54.424Z,3.71
2023-03-02T02:40:44.871Z,3.85
2023-03-02T02:43:18.136Z,3.78
2023-03-02T02:45:46.943Z,3.68
2023-03-02T02:48:20.084Z,3.67
2023-03-02T02:50:47.412Z,3.67
2023-03-02T02:53:21.731Z,3.49
2023-03-02T02:55:51.913Z,3.50
2023-03-02T02:58:25.040Z,3.57
2023-03-02T03:00:53.873Z,3.40
2023-03-02T03:03:29.237Z,3.47
2023-03-02T03:06:00.111Z,3.47
2023-03-02T03:09:00.245Z,3.26
2023-03-02T03:11:41.307Z,3.19
2023-03-02T03:14:36.547Z,3.45
2023-03-02T03:17:04.207Z,3.37
2023-03-02T03:19:33.307Z,3.44
2023-03-02T03:22:02.144Z,3.31
2023-03-02T03:24:34.891Z,3.31
2023-03-02T03:27:06.566Z,3.22
2023-03-02T03:29:39.428Z,3.16
2023-03-02T03:32:08.314Z,3.22
2023-03-02T03:34:41.662Z,3.25
2023-03-02T03:37:41.668Z,3.09
2023-03-02T03:40:10.402Z,3.11
2023-03-02T03:42:40.236Z,2.95
2023-03-02T03:45:08.826Z,3.19
2023-03-02T03:47:36.842Z,3.20
2023-03-02T03:50:06.120Z,3.20
2023-03-02T03:52:33.471Z,3.20
2023-03-02T03:55:12.447Z,3.18
2023-03-02T03:57:40.044Z,3.11
2023-03-02T04:00:14.844Z,3.13
2023-03-02T04:02:45.784Z,3.17
2023-03-02T04:05:12.759Z,3.12
2023-03-02T04:07:40.983Z,3.10
2023-03-02T04:10:09.304Z,3.07
2023-03-02T04:12:41.064Z,3.04
2023-03-02T04:15:14.701Z,2.98
2023-03-02T04:17:43.535Z,3.00
2023-03-02T04:20:16.615Z,2.98
2023-03-02T04:22:48.045Z,2.98
2023-03-02T04:25:19.620Z,2.95
2023-03-02T04:27:48.391Z,3.10
2023-03-02T04:30:18.502Z,3.14
2023-03-02T04:32:45.243Z,3.04
2023-03-02T04:35:13.494Z,2.99
2023-03-02T04:37:41.571Z,3.10
2023-03-02T04:40:11.693Z,3.03
2023-03-02T04:42:39.098Z,2.98
2023-03-02T04:45:06.416Z,2.98
2023-03-02T04:47:33.344Z,2.93
2023-03-02T04:49:59.967Z,2.90
2023-03-02T04:52:26.802Z,2.82
2023-03-02T04:54:53.444Z,2.79
2023-03-02T04:57:20.107Z,2.83
2023-03-02T04:59:46.736Z,2.81
2023-03-02T05:02:13.615Z,2.77
2023-03-02T05:04:42.412Z,2.69
2023-03-02T05:07:09.243Z,2.72
2023-03-02T05:09:36.019Z,2.75
2023-03-02T05:12:02.659Z,2.80
2023-03-02T05:14:29.910Z,2.77
2023-03-02T05:16:57.104Z,2.87
2023-03-02T05:19:24.043Z,2.82
2023-03-02T05:21:51.236Z,2.83
2023-03-02T05:24:18.254Z,2.78
2023-03-02T05:26:45.021Z,2.77
2023-03-02T05:29:11.643Z,2.81
2023-03-02T05:31:41.545Z,2.78
2023-03-02T05:34:13.202Z,2.69
2023-03-02T05:36:39.805Z,2.74
2023-03-02T05:39:06.908Z,2.61
2023-03-02T05:41:33.596Z,2.57
2023-03-02T05:44:00.658Z,2.51
2023-03-02T05:46:27.822Z,2.58
2023-03-02T05:48:54.581Z,2.64
2023-03-02T05:51:21.454Z,2.62
2023-03-02T05:53:48.192Z,2.63
2023-03-02T05:56:14.931Z,2.68
2023-03-02T05:58:41.547Z,2.76
2023-03-02T06:01:12.580Z,2.68
2023-03-02T06:03:41.590Z,2.68
2023-03-02T06:06:08.228Z,2.67
2023-03-02T06:08:34.889Z,2.66
2023-03-02T06:11:01.921Z,2.78
2023-03-02T06:13:28.527Z,2.77
2023-03-02T06:15:55.884Z,2.76
2023-03-02T06:18:22.692Z,2.74
2023-03-02T06:20:50.478Z,2.82
2023-03-02T06:23:17.089Z,2.76
2023-03-02T06:25:48.533Z,2.70
2023-03-02T06:28:16.208Z,2.68
2023-03-02T06:30:42.973Z,2.84
2023-03-02T06:33:09.680Z,2.90
2023-03-02T06:35:36.494Z,2.80
2023-03-02T06:38:03.296Z,2.90
2023-03-02T06:40:30.323Z,2.84
2023-03-02T06:42:57.118Z,2.91
2023-03-02T06:45:23.776Z,2.91
2023-03-02T06:47:50.397Z,3.05
2023-03-02T06:50:17.066Z,3.07
2023-03-02T06:52:43.813Z,3.08
2023-03-02T06:55:10.698Z,3.15
2023-03-02T06:57:37.655Z,3.22
2023-03-02T07:00:13.165Z,3.21
2023-03-02T07:02:39.819Z,3.20
2023-03-02T07:05:07.420Z,3.26
2023-03-02T07:07:34.399Z,3.29
2023-03-02T07:10:01.072Z,3.34
2023-03-02T07:12:28.004Z,3.40
2023-03-02T07:14:54.700Z,3.48
2023-03-02T07:17:21.383Z,3.50
2023-03-02T07:19:47.991Z,3.69
2023-03-02T07:22:14.639Z,3.65
2023-03-02T07:24:41.951Z,3.75
2023-03-02T07:27:10.104Z,3.95
2023-03-02T07:29:38.102Z,4.02
2023-03-02T07:32:06.761Z,4.13
2023-03-02T07:34:33.671Z,4.45
2023-03-02T07:37:00.365Z,4.42
2023-03-02T07:39:26.981Z,4.52
2023-03-02T07:41:57.049Z,4.65
2023-03-02T07:44:23.625Z,4.72
2023-03-02T07:46:50.567Z,4.97
2023-03-02T07:49:17.226Z,5.01
2023-03-02T07:51:44.053Z,5.20
2023-03-02T07:54:10.782Z,5.18
2023-03-02T07:56:37.654Z,5.39
2023-03-02T07:59:04.301Z,5.58
2023-03-02T08:01:31.487Z,5.66
2023-03-02T08:03:58.394Z,5.54
2023-03-02T08:06:24.993Z,5.69
2023-03-02T08:08:51.667Z,5.62
2023-03-02T08:11:19.203Z,5.86
2023-03-02T08:13:47.041Z,6.06
2023-03-02T08:16:15.596Z,6.23
2023-03-02T08:18:42.830Z,6.20
2023-03-02T08:21:18.441Z,6.41
2023-03-02T08:23:45.646Z,6.55
2023-03-02T08:26:14.795Z,6.64
2023-03-02T08:28:43.451Z,6.73
2023-03-02T08:31:11.206Z,6.85
2023-03-02T08:33:38.224Z,7.00
2023-03-02T08:36:08.416Z,7.02
2023-03-02T08:38:35.846Z,6.90
2023-03-02T08:41:05.020Z,7.03
2023-03-02T08:43:31.739Z,6.99
2023-03-02T08:45:58.436Z,6.95
2023-03-02T08:48:26.808Z,7.34
2023-03-02T08:51:06.864Z,7.47
2023-03-02T08:53:36.538Z,7.44
2023-03-02T08:56:03.737Z,7.59
2023-03-02T08:58:30.312Z,7.75
2023-03-02T09:00:56.966Z,7.64
2023-03-02T09:03:23.711Z,7.90
2023-03-02T09:05:50.980Z,8.09
2023-03-02T09:08:17.627Z,8.16
2023-03-02T09:10:44.245Z,8.35
2023-03-02T09:13:11.001Z,8.25
2023-03-02T09:15:37.638Z,8.71
2023-03-02T09:18:04.655Z,9.50
2023-03-02T09:20:32.090Z,10.88
2023-03-02T09:22:58.854Z,11.88
2023-03-02T09:25:25.575Z,13.93
2023-03-02T09:27:52.233Z,14.08
2023-03-02T09:30:18.972Z,13.56
2023-03-02T09:32:45.788Z,12.68
2023-03-02T09:35:14.629Z,14.46
2023-03-02T09:37:43.378Z,14.85
2023-03-02T09:40:23.255Z,14.75
2023-03-02T09:43:08.197Z,13.12
2023-03-02T09:45:43.995Z,11.76
2023-03-02T09:48:28.787Z,10.66
2023-03-02T09:51:24.012Z,10.72
2023-03-02T09:54:11.242Z,10.37
2023-03-02T09:56:44.044Z,9.92
2023-03-02T09:59:41.804Z,10.14
2023-03-02T10:02:26.916Z,10.21
2023-03-02T10:04:55.812Z,9.94
2023-03-02T10:07:30.326Z,10.25
2023-03-02T10:10:06.676Z,10.10
2023-03-02T10:12:53.666Z,10.12
2023-03-02T10:15:36.194Z,10.14
2023-03-02T10:18:13.547Z,10.16
2023-03-02T10:20:54.628Z,10.30
2023-03-02T10:23:32.917Z,10.19
2023-03-02T10:26:32.223Z,10.19
2023-03-02T10:29:23.695Z,10.30
2023-03-02T10:31:56.953Z,10.34
2023-03-02T10:34:27.784Z,10.26
2023-03-02T10:36:54.415Z,10.14
2023-03-02T10:39:21.257Z,10.34
2023-03-02T10:41:53.230Z,10.21
2023-03-02T10:44:28.335Z,9.97
2023-03-02T10:46:55.235Z,10.28
2023-03-02T10:49:32.299Z,10.53
2023-03-02T10:52:04.878Z,10.63
2023-03-02T10:54:34.336Z,10.66
2023-03-02T10:57:04.232Z,10.84
2023-03-02T10:59:41.050Z,10.94
2023-03-02T11:02:23.500Z,11.06
2023-03-02T11:04:57.312Z,10.80
2023-03-02T11:07:27.843Z,10.87
2023-03-02T11:10:03.637Z,11.30
2023-03-02T11:12:32.389Z,11.05
2023-03-02T11:15:08.248Z,11.25
2023-03-02T11:17:37.699Z,11.23
2023-03-02T11:20:13.244Z,11.21
2023-03-02T11:22:52.739Z,11.30
2023-03-02T11:25:34.437Z,11.23
2023-03-02T11:28:13.865Z,11.19
2023-03-02T11:30:48.006Z,10.91
2023-03-02T11:33:51.468Z,11.05
2023-03-02T11:36:23.567Z,11.09
2023-03-02T11:38:54.516Z,11.08
2023-03-02T11:41:29.785Z,10.93
2023-03-02T11:43:59.644Z,10.75
2023-03-02T11:46:32.278Z,10.68
2023-03-02T11:49:13.616Z,10.90
2023-03-02T11:51:57.906Z,10.99
2023-03-02T11:54:34.660Z,10.92
2023-03-02T11:57:01.627Z,10.86
2023-03-02T11:59:30.276Z,10.78
2023-03-02T12:01:59.508Z,10.99
2023-03-02T12:04:32.325Z,10.91
2023-03-02T12:07:01.431Z,10.87
2023-03-02T12:09:37.795Z,10.83
2023-03-02T12:12:26.480Z,10.75
2023-03-02T12:14:53.304Z,10.99
2023-03-02T12:17:22.239Z,11.02
2023-03-02T12:19:50.952Z,10.82
2023-03-02T12:22:29.316Z,10.69
2023-03-02T12:25:05.800Z,10.85
2023-03-02T12:27:38.969Z,10.88
2023-03-02T12:30:24.971Z,10.92
2023-03-02T12:33:10.224Z,10.95
2023-03-02T12:35:38.052Z,10.93
2023-03-02T12:38:19.799Z,10.96
2023-03-02T12:41:12.950Z,10.71
2023-03-02T12:43:55.795Z,10.66
2023-03-02T12:46:32.467Z,10.68
2023-03-02T12:49:01.419Z,11.02
2023-03-02T12:51:46.918Z,10.92
2023-03-02T12:54:16.615Z,10.82
2023-03-02T12:56:44.847Z,10.78
2023-03-02T12:59:27.034Z,10.77
2023-03-02T13:02:28.561Z,10.68
2023-03-02T13:04:59.605Z,10.82
2023-03-02T13:07:43.802Z,10.73
2023-03-02T13:10:25.764Z,10.66
2023-03-02T13:12:52.639Z,10.90
2023-03-02T13:15:19.732Z,10.84
2023-03-02T13:17:54.557Z,10.82
2023-03-02T13:20:24.390Z,10.90
2023-03-02T13:22:51.569Z,10.92
2023-03-02T13:25:30.343Z,10.86
2023-03-02T13:28:00.730Z,10.77
2023-03-02T13:30:32.375Z,10.86
2023-03-02T13:33:13.207Z,10.85
2023-03-02T13:35:46.600Z,10.86
2023-03-02T13:38:19.111Z,10.89
2023-03-02T13:40:48.381Z,11.03
2023-03-02T13:43:37.091Z,11.03
2023-03-02T13:46:35.492Z,11.15
2023-03-02T13:49:10.995Z,11.12
2023-03-02T13:51:44.210Z,11.32
2023-03-02T13:54:22.816Z,11.37
2023-03-02T13:56:51.146Z,11.41
2023-03-02T13:59:19.447Z,11.45
2023-03-02T14:01:46.952Z,11.40
2023-03-02T14:04:17.564Z,11.54
2023-03-02T14:06:45.891Z,11.63
2023-03-02T14:09:13.344Z,11.75
2023-03-02T14:11:42.550Z,11.85
2023-03-02T14:14:15.987Z,11.93
2023-03-02T14:16:42.580Z,11.92
2023-03-02T14:19:13.480Z,12.10
2023-03-02T14:21:40.141Z,12.11
2023-03-02T14:24:07.168Z,12.25
2023-03-02T14:26:36.414Z,12.35
2023-03-02T14:29:31.743Z,12.36
2023-03-02T14:32:00.896Z,12.45
2023-03-02T14:34:27.629Z,12.56
2023-03-02T14:36:57.364Z,12.67
2023-03-02T14:39:33.857Z,12.74
2023-03-02T14:42:00.845Z,12.76
2023-03-02T14:44:27.731Z,12.83
2023-03-02T14:46:54.511Z,12.90
2023-03-02T14:49:21.390Z,13.00
2023-03-02T14:52:05.668Z,13.11
2023-03-02T14:54:40.334Z,13.13
2023-03-02T14:57:16.940Z,13.16
2023-03-02T14:59:43.812Z,13.23
2023-03-02T15:02:24.261Z,13.29
2023-03-02T15:04:56.003Z,13.37
2023-03-02T15:07:24.663Z,13.38
2023-03-02T15:09:51.244Z,13.38
2023-03-02T15:12:17.865Z,13.41
2023-03-02T15:14:44.482Z,13.41
2023-03-02T15:17:11.411Z,13.46
2023-03-02T15:19:38.009Z,13.49
2023-03-02T15:22:04.724Z,13.57
2023-03-02T15:24:33.230Z,13.53
2023-03-02T15:27:00.897Z,13.52
2023-03-02T15:29:27.560Z,13.32
2023-03-02T15:31:54.261Z,13.10
2023-03-02T15:34:21.048Z,12.82
2023-03-02T15:36:47.654Z,12.61
2023-03-02T15:39:15.484Z,12.56
2023-03-02T15:41:42.941Z,12.43
2023-03-02T15:44:21.502Z,12.34
2023-03-02T15:46:49.512Z,12.20
2023-03-02T15:49:16.161Z,12.17
2023-03-02T15:51:42.835Z,12.08
2023-03-02T15:54:10.797Z,12.02
2023-03-02T15:56:44.142Z,12.04
2023-03-02T15:59:11.892Z,12.00
2023-03-02T16:01:38.853Z,11.94
2023-03-02T16:04:05.531Z,11.98
2023-03-02T16:06:32.231Z,11.83
2023-03-02T16:08:58.875Z,11.89
2023-03-02T16:11:25.672Z,11.69
2023-03-02T16:13:52.596Z,11.82
2023-03-02T16:16:20.967Z,11.83
2023-03-02T16:18:52.053Z,11.79
2023-03-02T16:21:18.943Z,11.78
2023-03-02T16:23:46.828Z,11.63
2023-03-02T16:26:18.329Z,11.60
2023-03-02T16:28:45.814Z,11.59
2023-03-02T16:31:18.177Z,11.69
2023-03-02T16:33:45.517Z,11.65
2023-03-02T16:36:13.390Z,11.60
2023-03-02T16:38:40.510Z,11.61
2023-03-02T16:41:14.033Z,11.64
2023-03-02T16:43:46.174Z,11.52
2023-03-02T16:46:13.387Z,11.55
2023-03-02T16:48:40.628Z,11.48
2023-03-02T16:51:07.311Z,11.38
2023-03-02T16:53:34.338Z,11.35
2023-03-02T16:56:01.123Z,11.26
2023-03-02T16:58:27.837Z,11.26
2023-03-02T17:00:55.489Z,11.27
2023-03-02T17:03:22.564Z,11.17
2023-03-02T17:05:49.164Z,11.07
2023-03-02T17:08:16.814Z,11.08
2023-03-02T17:10:44.068Z,11.02
2023-03-02T17:13:12.092Z,10.97
2023-03-02T17:15:39.661Z,11.00
2023-03-02T17:18:06.383Z,11.05
2023-03-02T17:20:33.707Z,10.90
2023-03-02T17:23:00.534Z,10.94
2023-03-02T17:25:27.148Z,10.96
2023-03-02T17:27:53.917Z,10.92
2023-03-02T17:30:20.768Z,10.70
2023-03-02T17:32:47.629Z,10.79
2023-03-02T17:35:15.651Z,10.72
2023-03-02T17:37:42.643Z,10.53
2023-03-02T17:40:13.971Z,10.56
2023-03-02T17:42:40.814Z,10.67
2023-03-02T17:45:08.068Z,10.75
2023-03-02T17:47:35.024Z,10.82
2023-03-02T17:50:04.301Z,10.65
2023-03-02T17:52:31.125Z,10.59
2023-03-02T17:54:57.760Z,10.46
2023-03-02T17:57:25.809Z,10.45
2023-03-02T17:59:52.436Z,10.70
2023-03-02T18:02:19.274Z,10.53
2023-03-02T18:04:46.376Z,10.54
2023-03-02T18:07:13.347Z,10.65
2023-03-02T18:09:39.994Z,10.73
2023-03-02T18:12:07.547Z,10.67
2023-03-02T18:14:36.312Z,10.59
2023-03-02T18:17:04.910Z,10.39
2023-03-02T18:19:31.650Z,10.52
2023-03-02T18:21:58.603Z,10.38
2023-03-02T18:24:25.664Z,10.26
2023-03-02T18:26:52.375Z,10.26
2023-03-02T18:29:19.158Z,10.44
2023-03-02T18:31:45.834Z,10.30
2023-03-02T18:34:12.490Z,10.18
2023-03-02T18:36:39.269Z,10.29
2023-03-02T18:39:06.046Z,10.21
2023-03-02T18:41:32.890Z,10.20
2023-03-02T18:44:01.531Z,10.15
2023-03-02T18:46:30.657Z,10.09
2023-03-02T18:49:00.397Z,9.97
2023-03-02T18:51:27.925Z,10.14
2023-03-02T18:53:56.002Z,10.14
2023-03-02T18:56:23.489Z,10.01
2023-03-02T18:58:51.373Z,9.91
2023-03-02T19:01:18.770Z,9.94
2023-03-02T19:03:45.886Z,9.85
2023-03-02T19:06:14.149Z,9.89
2023-03-02T19:08:40.877Z,9.87
2023-03-02T19:11:07.841Z,9.76
2023-03-02T19:13:34.491Z,10.01
2023-03-02T19:16:02.122Z,9.98
2023-03-02T19:18:29.554Z,9.82
2023-03-02T19:20:57.570Z,9.71
2023-03-02T19:23:24.884Z,9.62
2023-03-02T19:25:51.903Z,9.78
2023-03-02T19:28:18.675Z,9.74
2023-03-02T19:30:45.435Z,9.62
2023-03-02T19:33:16.420Z,9.51
2023-03-02T19:35:46.685Z,9.51
2023-03-02T19:38:14.639Z,9.62
2023-03-02T19:40:41.484Z,9.53
2023-03-02T19:43:08.330Z,9.55
2023-03-02T19:45:35.747Z,9.46
2023-03-02T19:48:03.901Z,9.42
2023-03-02T19:50:31.564Z,9.52
2023-03-02T19:52:59.112Z,9.46
2023-03-02T19:55:27.764Z,9.46
2023-03-02T19:58:00.994Z,9.42
2023-03-02T20:00:33.310Z,9.43
2023-03-02T20:03:00.435Z,9.36
2023-03-02T20:05:27.776Z,9.37
2023-03-02T20:07:55.171Z,9.33
2023-03-02T20:10:28.665Z,9.21
2023-03-02T20:12:55.561Z,9.27
2023-03-02T20:15:22.233Z,9.25
2023-03-02T20:17:48.862Z,9.18
2023-03-02T20:20:15.635Z,9.19
2023-03-02T20:22:43.845Z,9.12
2023-03-02T20:25:11.226Z,9.10
2023-03-02T20:27:38.034Z,9.03
2023-03-02T20:30:08.407Z,9.02
2023-03-02T20:32:37.686Z,8.99
2023-03-02T20:35:05.681Z,8.92
2023-03-02T20:37:36.107Z,8.79
2023-03-02T20:40:06.346Z,8.73
2023-03-02T20:42:34.136Z,8.69
2023-03-02T20:45:02.108Z,8.65
2023-03-02T20:47:30.776Z,8.63
2023-03-02T20:49:58.107Z,8.45
2023-03-02T20:52:24.760Z,8.43
2023-03-02T20:54:51.876Z,8.51
2023-03-02T20:57:24.807Z,8.57
2023-03-02T20:59:55.170Z,8.50
2023-03-02T21:02:22.433Z,8.46
2023-03-02T21:04:49.193Z,8.63
2023-03-02T21:07:19.136Z,8.34
2023-03-02T21:09:46.864Z,8.44
2023-03-02T21:12:14.861Z,8.44
2023-03-02T21:14:44.738Z,8.41
2023-03-02T21:17:11.570Z,8.54
2023-03-02T21:19:38.505Z,8.41
2023-03-02T21:22:05.789Z,8.50
2023-03-02T21:24:32.711Z,8.40
2023-03-02T21:27:01.301Z,8.30
2023-03-02T21:29:28.353Z,8.28
2023-03-02T21:31:55.324Z,8.27
2023-03-02T21:34:22.347Z,8.07
2023-03-02T21:36:52.984Z,8.08
2023-03-02T21:39:23.521Z,8.01
2023-03-02T21:41:51.186Z,8.02
2023-03-02T21:44:19.056Z,8.21
2023-03-02T21:46:46.715Z,8.20
2023-03-02T21:49:18.918Z,8.17
2023-03-02T21:51:48.109Z,8.09
2023-03-02T21:54:15.575Z,8.06
2023-03-02T21:56:43.598Z,8.21
2023-03-02T21:59:11.431Z,8.07
2023-03-02T22:01:38.216Z,8.04
2023-03-02T22:04:05.134Z,7.85
2023-03-02T22:06:33.244Z,7.83
2023-03-02T22:09:01.682Z,7.63
2023-03-02T22:11:32.420Z,7.64
2023-03-02T22:14:02.721Z,7.90
2023-03-02T22:16:36.862Z,7.80
2023-03-02T22:19:17.909Z,7.86
2023-03-02T22:21:48.250Z,7.81
2023-03-02T22:24:21.905Z,7.72
2023-03-02T22:26:55.273Z,7.62
2023-03-02T22:29:32.294Z,7.31
2023-03-02T22:32:13.042Z,7.56
2023-03-02T22:34:42.948Z,7.72
2023-03-02T22:37:13.238Z,7.55
2023-03-02T22:39:42.149Z,7.35
2023-03-02T22:42:16.987Z,7.22
2023-03-02T22:44:55.227Z,7.39
2023-03-02T22:47:22.056Z,7.47
2023-03-02T22:49:57.666Z,7.41
2023-03-02T22:52:27.619Z,7.47
2023-03-02T22:54:55.097Z,7.43
2023-03-02T22:57:30.438Z,7.15
2023-03-02T23:00:14.060Z,7.07
2023-03-02T23:02:44.133Z,7.14
2023-03-02T23:05:30.446Z,7.03
2023-03-02T23:08:26.737Z,6.96
2023-03-02T23:10:57.751Z,6.91
2023-03-02T23:13:30.980Z,6.90
2023-03-02T23:15:57.683Z,7.02
2023-03-02T23:18:27.455Z,7.11
2023-03-02T23:20:54.502Z,7.09
2023-03-02T23:23:23.074Z,6.94
2023-03-02T23:25:50.665Z,6.87
2023-03-02T23:28:17.405Z,6.76
2023-03-02T23:30:45.254Z,6.90
2023-03-02T23:33:11.956Z,6.92
2023-03-02T23:35:38.702Z,6.84
2023-03-02T23:38:05.322Z,6.84
2023-03-02T23:40:31.920Z,6.80
2023-03-02T23:42:58.725Z,6.78
2023-03-02T23:45:26.419Z,6.75
2023-03-02T23:47:53.121Z,6.74
2023-03-02T23:50:19.883Z,6.66
2023-03-02T23:52:46.574Z,6.55
2023-03-02T23:55:13.364Z,6.43
2023-03-02T23:57:40.166Z,6.45
